Time;durP1;ratioP1;P1;durP2;ratioP2;P2;SDS_P1;SDS_P2;PMS_P1;PMS_P2;Temp;Humidity;BMP_temperature;BMP_pressure;BME280_temperature;BME280_humidity;BME280_pressure;Samples;Min_cycle;Max_cycle;Signal;HPM_P1;HPM_P2
2023/10/19 00:01:28;;;;;;;5.97;2.88;;;19.30;96.70;;;;;;4975074;28;20078;-81
2023/10/19 00:03:58;;;;;;;6.32;2.65;;;19.30;96.70;;;;;;4966704;28;20089;-82
2023/10/19 00:06:27;;;;;;;3.85;2.17;;;19.30;96.70;;;;;;4980756;28;20488;-82
2023/10/19 00:08:55;;;;;;;4.05;2.22;;;19.30;96.70;;;;;;4985924;28;20500;-82
2023/10/19 00:11:25;;;;;;;6.47;2.50;;;19.30;96.70;;;;;;4977005;28;20049;-82
2023/10/19 00:13:54;;;;;;;6.80;2.22;;;19.30;96.70;;;;;;4969126;28;20153;-81
2023/10/19 00:16:22;;;;;;;3.45;1.95;;;19.30;96.70;;;;;;4978051;28;20050;-82
2023/10/19 00:18:52;;;;;;;3.03;1.80;;;19.30;96.70;;;;;;4986762;28;20390;-82
2023/10/19 00:21:24;;;;;;;3.97;2.20;;;19.30;96.70;;;;;;4985474;28;20651;-81
2023/10/19 00:23:57;;;;;;;4.38;1.95;;;19.30;96.70;;;;;;4970633;28;20382;-81
2023/10/19 00:26:26;;;;;;;6.72;2.65;;;19.30;96.70;;;;;;4975427;28;20483;-81
2023/10/19 00:29:05;;;;;;;7.85;2.42;;;19.30;96.70;;;;;;4968529;28;20126;-83
2023/10/19 00:31:34;;;;;;;4.82;2.17;;;19.30;96.70;;;;;;4973878;28;20501;-83
2023/10/19 00:34:04;;;;;;;2.83;1.92;;;19.30;96.70;;;;;;4984433;28;20145;-83
2023/10/19 00:36:33;;;;;;;4.18;1.80;;;19.30;96.70;;;;;;4960635;28;20074;-83
2023/10/19 00:39:13;;;;;;;3.55;1.60;;;19.30;96.70;;;;;;4958734;28;20137;-83
2023/10/19 00:41:42;;;;;;;3.47;1.95;;;19.30;96.70;;;;;;4960259;28;20061;-83
2023/10/19 00:44:11;;;;;;;3.75;1.88;;;19.40;96.70;;;;;;4968546;28;20141;-84
2023/10/19 00:49:14;;;;;;;5.22;2.00;;;19.40;96.70;;;;;;4978075;28;20055;-82
2023/10/19 00:54:26;;;;;;;3.72;1.70;;;19.40;96.70;;;;;;4978943;28;20050;-82
2023/10/19 00:56:58;;;;;;;5.90;1.90;;;19.40;96.70;;;;;;4967310;28;20097;-82
2023/10/19 00:59:38;;;;;;;3.75;1.80;;;19.40;96.70;;;;;;4956052;28;20105;-82
2023/10/19 01:02:28;;;;;;;3.00;1.80;;;19.40;96.70;;;;;;4980266;28;20138;-82
2023/10/19 01:05:04;;;;;;;2.72;1.55;;;19.40;96.70;;;;;;4964052;28;20420;-82
2023/10/19 01:07:38;;;;;;;4.32;2.00;;;19.50;96.70;;;;;;4988507;28;20066;-82
2023/10/19 01:10:08;;;;;;;2.97;1.70;;;19.50;96.70;;;;;;4959008;28;20085;-82
2023/10/19 01:12:39;;;;;;;2.75;1.50;;;19.50;96.70;;;;;;4970605;28;20074;-82
2023/10/19 01:15:16;;;;;;;5.47;1.67;;;19.50;96.70;;;;;;4963467;28;20445;-82
2023/10/19 01:17:51;;;;;;;2.75;1.77;;;19.50;96.70;;;;;;4980904;28;20042;-82
2023/10/19 01:31:29;;;;;;;4.10;1.88;;;19.40;96.70;;;;;;4981232;28;20720;-82
2023/10/19 01:34:00;;;;;;;5.30;2.08;;;19.30;96.70;;;;;;4980555;28;20050;-82
2023/10/19 01:36:32;;;;;;;4.20;2.03;;;19.30;96.70;;;;;;4967237;28;20077;-82
2023/10/19 01:39:09;;;;;;;6.03;2.13;;;19.40;96.70;;;;;;4984086;28;20055;-82
2023/10/19 01:41:41;;;;;;;4.43;1.75;;;19.30;96.70;;;;;;4975671;28;20046;-82
2023/10/19 01:44:13;;;;;;;3.88;1.80;;;19.30;96.70;;;;;;4964054;28;20085;-82
2023/10/19 01:46:46;;;;;;;2.70;1.83;;;19.30;96.70;;;;;;4999221;28;20046;-82
2023/10/19 01:49:25;;;;;;;5.38;2.13;;;19.30;96.70;;;;;;4983697;28;20049;-82
2023/10/19 01:51:55;;;;;;;4.15;1.80;;;19.40;96.70;;;;;;4967667;28;20050;-82
2023/10/19 01:54:25;;;;;;;3.60;2.05;;;19.30;96.70;;;;;;4987909;28;20050;-83
2023/10/19 01:56:56;;;;;;;4.93;2.08;;;19.30;96.70;;;;;;4974624;28;20129;-83
2023/10/19 01:59:27;;;;;;;5.80;2.53;;;19.30;96.70;;;;;;4989027;28;20057;-82
2023/10/19 02:01:57;;;;;;;4.03;1.85;;;19.30;96.70;;;;;;4982222;28;20053;-82
2023/10/19 02:04:26;;;;;;;3.60;1.80;;;19.30;96.70;;;;;;4990858;28;20045;-83
2023/10/19 02:06:54;;;;;;;4.40;1.98;;;19.30;96.70;;;;;;5001555;28;20066;-82
2023/10/19 02:09:26;;;;;;;8.15;2.08;;;19.20;96.70;;;;;;4989255;28;20044;-81
2023/10/19 02:11:58;;;;;;;8.50;2.75;;;19.20;96.70;;;;;;4988871;28;20069;-82
2023/10/19 02:14:31;;;;;;;5.35;2.05;;;19.30;96.70;;;;;;4986263;28;20057;-82
2023/10/19 02:17:01;;;;;;;2.65;1.70;;;19.30;96.70;;;;;;5008650;28;20391;-82
2023/10/19 02:19:30;;;;;;;2.83;1.60;;;19.30;96.70;;;;;;4982493;28;20050;-82
2023/10/19 02:22:03;;;;;;;2.70;1.90;;;19.30;96.70;;;;;;4959921;28;20044;-82
2023/10/19 02:24:33;;;;;;;3.20;1.63;;;19.30;96.70;;;;;;4966777;28;20475;-82
2023/10/19 02:27:01;;;;;;;4.97;1.80;;;19.40;96.70;;;;;;4990048;28;20042;-82
2023/10/19 02:29:30;;;;;;;3.63;2.00;;;19.30;96.70;;;;;;4983804;28;20046;-83
2023/10/19 02:32:04;;;;;;;4.93;1.92;;;19.40;96.70;;;;;;4962090;28;20073;-82
2023/10/19 02:34:32;;;;;;;4.95;2.10;;;19.40;96.70;;;;;;4981348;28;20054;-82
2023/10/19 02:37:01;;;;;;;3.60;1.67;;;19.40;96.70;;;;;;4976318;28;20427;-82
2023/10/19 02:39:29;;;;;;;3.03;2.00;;;19.40;96.70;;;;;;4990427;28;20418;-82
2023/10/19 02:42:01;;;;;;;3.00;1.60;;;19.40;96.70;;;;;;4989833;28;20072;-82
2023/10/19 02:44:30;;;;;;;6.63;2.30;;;19.40;96.70;;;;;;4979525;28;20050;-82
2023/10/19 02:46:59;;;;;;;2.58;1.90;;;19.40;96.70;;;;;;4972649;28;20057;-82
2023/10/19 02:49:30;;;;;;;3.15;1.80;;;19.40;96.70;;;;;;4984429;28;20139;-82
2023/10/19 02:52:04;;;;;;;4.03;2.00;;;19.40;96.70;;;;;;4967854;28;20159;-83
2023/10/19 02:54:33;;;;;;;4.03;1.75;;;19.40;96.70;;;;;;4991419;28;20052;-82
2023/10/19 02:57:09;;;;;;;4.53;1.90;;;19.40;96.70;;;;;;4972080;28;20105;-83
2023/10/19 02:59:38;;;;;;;2.92;1.88;;;19.40;96.70;;;;;;4983059;28;20054;-82
2023/10/19 03:02:17;;;;;;;3.22;2.05;;;19.40;96.70;;;;;;4989817;28;20455;-83
2023/10/19 03:04:45;;;;;;;3.70;1.98;;;19.40;96.70;;;;;;4989267;28;20538;-83
2023/10/19 03:07:15;;;;;;;3.80;2.00;;;19.40;96.70;;;;;;4965866;28;20038;-83
2023/10/19 03:09:53;;;;;;;4.13;1.75;;;19.40;96.70;;;;;;4963491;28;20149;-83
2023/10/19 03:12:26;;;;;;;3.85;1.92;;;19.40;96.70;;;;;;4964443;28;20046;-83
2023/10/19 03:14:54;;;;;;;5.53;1.92;;;19.40;96.70;;;;;;4987434;28;20512;-83
2023/10/19 03:17:25;;;;;;;4.65;1.92;;;19.40;96.70;;;;;;4973094;28;20071;-82
2023/10/19 03:19:54;;;;;;;2.58;1.80;;;19.40;96.70;;;;;;4981869;28;20144;-83
2023/10/19 03:22:22;;;;;;;4.70;2.33;;;19.40;96.70;;;;;;4995828;28;20148;-83
2023/10/19 03:24:59;;;;;;;3.97;2.00;;;19.40;96.70;;;;;;4972645;28;20441;-83
2023/10/19 03:27:29;;;;;;;6.88;2.42;;;19.40;96.70;;;;;;4973264;28;20458;-83
2023/10/19 03:29:59;;;;;;;4.35;1.95;;;19.40;96.70;;;;;;4972830;28;20047;-83
2023/10/19 03:32:32;;;;;;;7.55;3.22;;;19.40;96.70;;;;;;5006433;28;20596;-83
2023/10/19 03:35:01;;;;;;;4.22;2.42;;;19.40;96.70;;;;;;4968478;28;20220;-82
2023/10/19 03:37:30;;;;;;;9.23;2.90;;;19.40;96.70;;;;;;4978202;28;20045;-82
2023/10/19 03:40:02;;;;;;;4.50;2.50;;;19.30;96.70;;;;;;4988201;28;20053;-82
2023/10/19 03:42:32;;;;;;;3.90;2.72;;;19.20;96.70;;;;;;4988555;28;20148;-83
2023/10/19 03:45:12;;;;;;;7.30;2.80;;;19.10;96.70;;;;;;4983496;28;20046;-83
2023/10/19 03:47:43;;;;;;;7.45;2.65;;;19.10;96.70;;;;;;4971844;28;20102;-83
2023/10/19 03:50:20;;;;;;;5.85;2.80;;;19.10;96.70;;;;;;4991945;28;20527;-82
2023/10/19 03:52:48;;;;;;;;;;;19.10;96.70;;;;;;4964635;28;20054;-82
2023/10/19 03:55:19;;;;;;;6.15;3.05;;;19.00;96.70;;;;;;5006092;28;20550;-82
2023/10/19 03:57:54;;;;;;;4.13;2.50;;;19.00;96.70;;;;;;5006509;28;20050;-82
2023/10/19 04:00:28;;;;;;;5.57;2.25;;;19.00;96.70;;;;;;4980900;28;20052;-83
2023/10/19 04:02:58;;;;;;;4.68;2.05;;;19.00;96.70;;;;;;4979084;28;20057;-81
2023/10/19 04:05:28;;;;;;;4.65;3.03;;;19.00;96.70;;;;;;4986616;28;20192;-81
2023/10/19 04:07:57;;;;;;;4.95;2.40;;;19.00;96.70;;;;;;4986882;28;20056;-80
2023/10/19 04:13:09;;;;;;;5.03;2.80;;;19.00;96.70;;;;;;4971925;28;20046;-83
2023/10/19 04:15:41;;;;;;;6.83;2.80;;;19.00;96.70;;;;;;4986503;28;20057;-83
2023/10/19 04:18:09;;;;;;;10.65;3.58;;;19.00;96.70;;;;;;4981250;28;20381;-84
2023/10/19 04:23:18;;;;;;;7.20;2.83;;;18.90;96.70;;;;;;4986140;28;20065;-83
2023/10/19 04:25:46;;;;;;;6.32;2.95;;;18.90;96.70;;;;;;4964244;28;20873;-83
2023/10/19 04:28:21;;;;;;;11.38;3.05;;;18.80;96.70;;;;;;4972493;28;20050;-83
2023/10/19 04:30:49;;;;;;;7.07;2.88;;;18.80;96.70;;;;;;4988804;28;20050;-83
2023/10/19 04:33:18;;;;;;;7.82;3.10;;;18.80;96.70;;;;;;5006080;28;20042;-83
2023/10/19 04:35:52;;;;;;;8.35;3.50;;;18.80;96.70;;;;;;4981809;28;20057;-84
2023/10/19 04:38:20;;;;;;;6.18;3.00;;;18.70;96.70;;;;;;4987495;28;20050;-82
2023/10/19 04:40:48;;;;;;;7.57;2.88;;;18.70;96.70;;;;;;4980332;28;20107;-82
2023/10/19 04:43:18;;;;;;;7.88;3.33;;;18.60;96.70;;;;;;4972649;28;20153;-82
2023/10/19 04:45:46;;;;;;;6.40;2.92;;;18.60;96.70;;;;;;4971533;28;20043;-81
2023/10/19 04:48:14;;;;;;;4.68;2.85;;;18.60;96.70;;;;;;4987696;28;20546;-81
2023/10/19 04:50:42;;;;;;;6.28;2.42;;;18.60;96.70;;;;;;4999329;28;20100;-82
2023/10/19 04:53:10;;;;;;;4.68;2.25;;;18.60;96.70;;;;;;4971701;28;20042;-81
2023/10/19 04:55:38;;;;;;;4.25;2.20;;;18.60;96.70;;;;;;4987201;28;20514;-81
2023/10/19 04:58:06;;;;;;;5.90;2.38;;;18.60;96.70;;;;;;4988621;28;20073;-82
2023/10/19 05:00:36;;;;;;;3.55;2.13;;;18.60;96.70;;;;;;4973751;28;20070;-83
2023/10/19 05:03:06;;;;;;;4.05;1.80;;;18.60;96.70;;;;;;4987643;28;20046;-83
2023/10/19 05:05:35;;;;;;;4.95;2.33;;;18.60;96.70;;;;;;4971841;28;20050;-83
2023/10/19 05:08:04;;;;;;;4.43;2.30;;;18.60;96.70;;;;;;4971703;28;20061;-83
2023/10/19 05:10:33;;;;;;;4.30;2.50;;;18.60;96.70;;;;;;4976914;28;20081;-83
2023/10/19 05:13:01;;;;;;;3.35;1.77;;;18.60;96.70;;;;;;4998211;28;20068;-83
2023/10/19 05:15:29;;;;;;;4.20;2.20;;;18.60;96.70;;;;;;4981279;28;20489;-83
2023/10/19 05:17:59;;;;;;;4.20;2.58;;;18.60;96.70;;;;;;4988248;28;20052;-82
2023/10/19 05:20:27;;;;;;;4.13;1.85;;;18.70;96.70;;;;;;4978061;28;20157;-83
2023/10/19 05:22:55;;;;;;;3.67;2.03;;;18.60;96.70;;;;;;4996331;28;20054;-82
2023/10/19 05:25:23;;;;;;;3.70;1.77;;;18.70;96.70;;;;;;4978644;28;20050;-83
2023/10/19 05:27:51;;;;;;;4.38;1.92;;;18.70;96.70;;;;;;4976145;28;20131;-82
2023/10/19 05:30:21;;;;;;;4.18;2.13;;;18.70;96.70;;;;;;5005437;28;20062;-82
2023/10/19 05:32:51;;;;;;;2.95;2.17;;;18.70;96.70;;;;;;4984807;28;20061;-83
2023/10/19 05:35:26;;;;;;;7.53;3.03;;;18.70;96.70;;;;;;4986506;28;20563;-82
2023/10/19 05:37:56;;;;;;;4.65;2.40;;;18.70;96.70;;;;;;4974781;28;20069;-84
2023/10/19 05:40:29;;;;;;;4.95;2.50;;;18.70;96.70;;;;;;4974915;28;20047;-87
2023/10/19 05:43:00;;;;;;;4.82;2.55;;;18.70;96.70;;;;;;4977180;28;20042;-85
2023/10/19 05:45:28;;;;;;;4.85;2.47;;;18.70;96.70;;;;;;4980225;28;20042;-84
2023/10/19 05:48:00;;;;;;;7.07;2.80;;;18.70;96.70;;;;;;4965911;28;20055;-84
2023/10/19 05:50:30;;;;;;;4.30;2.28;;;18.70;96.70;;;;;;4980109;28;20070;-85
2023/10/19 05:52:58;;;;;;;4.63;2.33;;;18.70;96.70;;;;;;4979909;28;20109;-83
2023/10/19 05:55:26;;;;;;;5.50;2.60;;;18.70;96.70;;;;;;4963855;28;20242;-81
2023/10/19 05:57:54;;;;;;;5.10;2.40;;;18.60;96.70;;;;;;4972218;28;20050;-84
2023/10/19 06:00:25;;;;;;;3.30;2.20;;;18.60;96.70;;;;;;4964959;28;20047;-84
2023/10/19 06:02:53;;;;;;;4.00;2.40;;;18.70;96.70;;;;;;4987176;28;20121;-85
2023/10/19 06:05:22;;;;;;;4.07;2.13;;;18.70;96.70;;;;;;4979874;28;20444;-86
2023/10/19 06:07:52;;;;;;;4.38;2.20;;;18.70;96.70;;;;;;4983623;28;20046;-83
2023/10/19 06:10:22;;;;;;;3.00;2.30;;;18.70;96.70;;;;;;4981712;28;20050;-81
2023/10/19 06:12:51;;;;;;;5.28;2.70;;;18.70;96.70;;;;;;4968829;28;20551;-81
2023/10/19 06:15:21;;;;;;;3.75;2.20;;;18.70;96.70;;;;;;4978611;28;20061;-82
2023/10/19 06:17:50;;;;;;;8.73;2.47;;;18.80;96.70;;;;;;4975080;28;20054;-82
2023/10/19 06:20:26;;;;;;;3.92;2.28;;;18.80;96.70;;;;;;4982683;28;20816;-82
2023/10/19 06:23:00;;;;;;;3.08;2.28;;;18.80;96.70;;;;;;4966549;28;20055;-82
2023/10/19 06:25:28;;;;;;;3.00;2.10;;;18.90;96.70;;;;;;4976764;28;20050;-81
2023/10/19 06:27:57;;;;;;;4.45;2.30;;;18.80;96.70;;;;;;4970220;28;20102;-82
2023/10/19 06:30:26;;;;;;;4.38;1.88;;;18.90;96.70;;;;;;4972416;28;20047;-82
2023/10/19 06:32:55;;;;;;;3.47;2.10;;;18.90;96.70;;;;;;5003646;28;20073;-82
2023/10/19 06:35:24;;;;;;;5.72;2.67;;;18.90;96.70;;;;;;4983987;28;20049;-81
2023/10/19 06:37:54;;;;;;;3.22;2.60;;;18.90;96.70;;;;;;4973112;28;20103;-81
2023/10/19 06:40:26;;;;;;;4.45;2.08;;;19.00;96.70;;;;;;4981018;28;20052;-81
2023/10/19 06:42:56;;;;;;;6.72;2.40;;;19.00;96.70;;;;;;5005664;28;20049;-80
2023/10/19 06:45:25;;;;;;;3.78;2.38;;;19.00;96.70;;;;;;4960692;28;20057;-81
2023/10/19 06:47:53;;;;;;;4.20;2.53;;;19.00;96.70;;;;;;4999971;28;20050;-81
2023/10/19 06:50:22;;;;;;;3.00;2.10;;;19.10;96.70;;;;;;4996051;28;20038;-80
2023/10/19 06:52:51;;;;;;;4.10;2.30;;;19.10;96.70;;;;;;4971955;28;20061;-81
2023/10/19 06:55:20;;;;;;;3.03;1.92;;;19.20;96.70;;;;;;4965738;28;20527;-82
2023/10/19 06:57:51;;;;;;;3.97;2.03;;;19.20;96.70;;;;;;4968800;28;20072;-80
2023/10/19 07:00:20;;;;;;;2.95;1.98;;;19.20;96.70;;;;;;4987980;28;20823;-80
2023/10/19 07:02:50;;;;;;;4.05;2.80;;;19.30;96.70;;;;;;4989908;28;20115;-79
2023/10/19 07:05:23;;;;;;;3.17;2.10;;;19.30;96.70;;;;;;5004721;28;20060;-79
2023/10/19 07:07:54;;;;;;;3.00;2.33;;;19.40;96.70;;;;;;4967232;28;20156;-79
2023/10/19 07:10:23;;;;;;;3.47;2.30;;;19.40;96.70;;;;;;4973175;28;20054;-78
2023/10/19 07:12:55;;;;;;;4.10;2.28;;;19.50;96.70;;;;;;4998917;28;20124;-79
2023/10/19 07:15:25;;;;;;;3.67;2.40;;;19.50;96.70;;;;;;4969340;28;20050;-79
2023/10/19 07:17:56;;;;;;;4.18;2.30;;;19.60;96.70;;;;;;4987532;28;20065;-79
2023/10/19 07:20:35;;;;;;;5.03;2.70;;;19.70;96.70;;;;;;4971163;28;20057;-79
2023/10/19 07:23:18;;;;;;;4.18;2.80;;;19.80;96.70;;;;;;4981259;28;20046;-80
2023/10/19 07:25:54;;;;;;;4.30;2.40;;;20.00;96.70;;;;;;4979986;28;20072;-80
2023/10/19 07:28:26;;;;;;;4.00;1.80;;;20.10;96.70;;;;;;4964609;28;20045;-79
2023/10/19 07:30:54;;;;;;;3.10;2.35;;;20.10;96.70;;;;;;4961012;28;20050;-79
2023/10/19 07:33:22;;;;;;;4.97;2.40;;;20.20;96.70;;;;;;4971873;28;20052;-82
2023/10/19 07:36:00;;;;;;;5.25;2.72;;;20.20;96.70;;;;;;4980468;28;20530;-81
2023/10/19 07:38:30;;;;;;;6.22;2.50;;;20.20;96.70;;;;;;5003465;28;20049;-82
2023/10/19 07:40:58;;;;;;;3.22;2.05;;;20.30;96.70;;;;;;4989314;28;20050;-81
2023/10/19 07:43:28;;;;;;;5.65;3.00;;;20.40;96.70;;;;;;5006485;28;20045;-81
2023/10/19 07:45:57;;;;;;;2.72;2.17;;;20.30;96.70;;;;;;4988901;28;20077;-80
2023/10/19 07:48:26;;;;;;;3.75;2.35;;;20.40;96.70;;;;;;4999582;28;20496;-81
2023/10/19 07:50:54;;;;;;;4.40;2.25;;;20.60;96.70;;;;;;4956185;28;20054;-81
2023/10/19 07:53:22;;;;;;;4.65;2.30;;;20.70;96.70;;;;;;4978820;28;20053;-82
2023/10/19 07:55:50;;;;;;;4.03;2.33;;;20.80;96.70;;;;;;4967057;28;20269;-82
2023/10/19 07:58:18;;;;;;;4.00;2.33;;;20.80;96.70;;;;;;5006440;28;20046;-81
2023/10/19 08:00:48;;;;;;;3.35;2.20;;;21.00;96.70;;;;;;4980877;28;20797;-82
2023/10/19 08:03:16;;;;;;;5.00;2.25;;;20.90;96.70;;;;;;4980324;28;20362;-81
2023/10/19 08:05:44;;;;;;;3.83;2.28;;;20.90;96.70;;;;;;4962731;28;20542;-82
2023/10/19 08:08:12;;;;;;;5.07;2.38;;;20.80;96.70;;;;;;5004019;28;20251;-80
2023/10/19 08:10:40;;;;;;;3.92;1.90;;;20.80;96.70;;;;;;4997064;28;20046;-80
2023/10/19 08:13:08;;;;;;;4.07;1.60;;;20.70;96.70;;;;;;4978510;28;20049;-81
2023/10/19 08:15:37;;;;;;;3.05;1.80;;;20.80;96.70;;;;;;4985074;28;20037;-80
2023/10/19 08:18:06;;;;;;;3.20;1.63;;;20.80;96.70;;;;;;4976811;28;20397;-80
2023/10/19 08:20:36;;;;;;;4.40;2.20;;;20.80;96.70;;;;;;4967762;28;20564;-80
2023/10/19 08:23:05;;;;;;;4.68;2.53;;;20.70;96.70;;;;;;4981008;28;20048;-80
2023/10/19 08:25:34;;;;;;;5.32;2.65;;;20.80;96.70;;;;;;4997159;28;20056;-80
2023/10/19 08:28:22;;;;;;;6.10;3.08;;;20.90;96.70;;;;;;4985444;28;20045;-80
2023/10/19 08:30:56;;;;;;;5.32;2.20;;;21.10;96.70;;;;;;4974050;28;20058;-80
2023/10/19 08:33:27;;;;;;;2.55;2.00;;;21.10;96.70;;;;;;5004086;28;20077;-80
2023/10/19 08:35:59;;;;;;;6.18;2.60;;;21.10;96.70;;;;;;4999541;28;20536;-80
2023/10/19 08:38:28;;;;;;;4.45;2.22;;;21.10;96.70;;;;;;4995741;28;20050;-83
2023/10/19 08:40:57;;;;;;;3.70;2.00;;;21.10;96.70;;;;;;4970361;28;20072;-83
2023/10/19 08:43:25;;;;;;;4.63;2.67;;;21.10;96.70;;;;;;4978839;28;20053;-84
2023/10/19 08:45:54;;;;;;;7.13;2.75;;;21.20;96.70;;;;;;4999837;28;20050;-80
2023/10/19 08:48:23;;;;;;;7.68;3.13;;;21.20;96.70;;;;;;4970869;28;20133;-80
2023/10/19 08:50:55;;;;;;;4.63;1.80;;;21.30;96.70;;;;;;4985265;28;20080;-79
2023/10/19 08:53:25;;;;;;;5.78;2.10;;;21.30;96.70;;;;;;4984667;28;20046;-80
2023/10/19 08:55:55;;;;;;;4.72;2.10;;;21.30;96.70;;;;;;4956768;28;20049;-79
2023/10/19 08:58:23;;;;;;;4.93;2.25;;;21.50;96.70;;;;;;4978035;28;20146;-79
2023/10/19 09:00:54;;;;;;;9.02;2.38;;;21.50;96.70;;;;;;4981278;28;20137;-81
2023/10/19 09:03:24;;;;;;;6.03;2.33;;;21.50;96.70;;;;;;4980406;28;20045;-81
2023/10/19 09:05:56;;;;;;;6.38;2.50;;;21.60;96.70;;;;;;5000620;28;20104;-80
2023/10/19 09:08:24;;;;;;;6.13;2.78;;;21.80;96.70;;;;;;5006481;28;20480;-81
2023/10/19 09:10:53;;;;;;;7.97;2.58;;;21.90;96.70;;;;;;5005932;28;20459;-80
2023/10/19 09:13:26;;;;;;;7.22;2.50;;;22.00;96.70;;;;;;4986773;28;20084;-80
2023/10/19 09:16:04;;;;;;;5.40;2.97;;;22.10;96.70;;;;;;4961727;28;20044;-82
2023/10/19 09:18:33;;;;;;;7.68;3.42;;;22.20;96.70;;;;;;4957866;28;20097;-81
2023/10/19 09:21:07;;;;;;;8.30;3.30;;;22.40;96.70;;;;;;4972667;28;20045;-82
2023/10/19 09:23:36;;;;;;;5.97;2.80;;;22.50;96.70;;;;;;4966437;28;20176;-82
2023/10/19 09:26:05;;;;;;;6.03;2.83;;;22.60;96.70;;;;;;5007640;28;20133;-82
2023/10/19 09:28:36;;;;;;;7.03;3.15;;;22.70;96.70;;;;;;4985393;28;20543;-81
2023/10/19 09:31:05;;;;;;;5.25;2.38;;;22.70;96.70;;;;;;4980881;28;20081;-82
2023/10/19 09:33:34;;;;;;;5.82;2.53;;;22.60;96.70;;;;;;4988300;28;20049;-82
2023/10/19 09:36:06;;;;;;;5.57;2.42;;;22.70;96.70;;;;;;4979960;28;20051;-83
2023/10/19 09:38:35;;;;;;;7.53;2.42;;;22.70;96.70;;;;;;4973951;28;20050;-82
2023/10/19 09:41:03;;;;;;;5.57;2.42;;;22.70;96.70;;;;;;4981720;28;20038;-81
2023/10/19 09:43:37;;;;;;;4.47;2.15;;;22.60;96.70;;;;;;5003952;28;20046;-81
2023/10/19 09:46:14;;;;;;;4.97;2.15;;;22.50;96.70;;;;;;4974369;28;20043;-80
2023/10/19 09:48:47;;;;;;;5.40;2.08;;;22.50;96.70;;;;;;4964959;28;20046;-80
2023/10/19 09:51:19;;;;;;;6.25;2.35;;;22.40;96.70;;;;;;4971114;28;20046;-80
2023/10/19 09:53:53;;;;;;;6.95;2.55;;;22.40;96.70;;;;;;5004279;28;20037;-80
2023/10/19 09:56:38;;;;;;;8.00;2.75;;;22.30;96.70;;;;;;4974441;28;20050;-80
2023/10/19 09:59:22;;;;;;;5.07;2.70;;;22.30;96.70;;;;;;4967326;28;20050;-80
2023/10/19 10:02:09;;;;;;;5.32;2.15;;;22.30;96.70;;;;;;4965398;28;20405;-81
2023/10/19 10:04:36;;;;;;;;;;;22.30;96.70;;;;;;4997473;28;20065;-80
2023/10/19 10:07:07;;;;;;;5.32;2.67;;;22.30;96.70;;;;;;5004492;28;19925;-80
2023/10/19 10:09:40;;;;;;;5.50;2.72;;;22.20;96.70;;;;;;4975484;28;20061;-80
2023/10/19 10:12:19;;;;;;;5.93;2.67;;;22.10;96.70;;;;;;4957238;28;20054;-80
2023/10/19 10:14:59;;;;;;;7.25;3.35;;;22.00;96.70;;;;;;4964631;28;20822;-81
2023/10/19 10:17:28;;;;;;;6.25;3.35;;;22.00;96.70;;;;;;4977460;28;20046;-81
2023/10/19 10:20:30;;;;;;;6.50;3.05;;;22.00;96.70;;;;;;4986382;28;20145;-80
2023/10/19 10:23:25;;;;;;;5.72;3.03;;;21.90;96.70;;;;;;4983623;28;20054;-80
2023/10/19 10:25:53;;;;;;;6.88;3.72;;;21.90;96.70;;;;;;4980962;28;20056;-80
2023/10/19 10:28:23;;;;;;;11.85;4.03;;;21.80;96.70;;;;;;4999959;28;20567;-80
2023/10/19 10:31:14;;;;;;;5.97;3.28;;;21.80;96.70;;;;;;5001905;28;20046;-81
2023/10/19 10:33:47;;;;;;;8.15;3.58;;;21.80;96.70;;;;;;4996254;28;20097;-81
2023/10/19 10:36:16;;;;;;;10.65;4.10;;;21.80;96.70;;;;;;4979705;28;20140;-80
2023/10/19 10:38:47;;;;;;;9.85;3.92;;;21.70;96.70;;;;;;4997519;28;20084;-81
2023/10/19 10:41:21;;;;;;;10.25;5.03;;;21.60;96.70;;;;;;4983472;28;20084;-80
2023/10/19 10:43:52;;;;;;;7.43;4.00;;;21.60;96.70;;;;;;4993102;28;20054;-80
2023/10/19 10:46:22;;;;;;;7.18;4.57;;;21.50;96.70;;;;;;4970405;28;20051;-79
2023/10/19 10:48:51;;;;;;;6.93;4.10;;;21.40;96.70;;;;;;4978374;28;20073;-78
2023/10/19 10:51:24;;;;;;;8.35;4.60;;;21.30;96.70;;;;;;4955215;28;20386;-80
2023/10/19 10:53:54;;;;;;;9.02;3.72;;;21.20;96.70;;;;;;5000172;28;20092;-81
2023/10/19 10:56:24;;;;;;;5.53;2.92;;;21.30;96.70;;;;;;4988641;28;20720;-80
2023/10/19 10:58:52;;;;;;;7.18;2.90;;;21.40;96.70;;;;;;4978415;28;20053;-81
2023/10/19 11:01:38;;;;;;;8.32;2.90;;;21.60;96.70;;;;;;5001494;28;20056;-81
2023/10/19 11:04:07;;;;;;;8.82;3.65;;;21.80;96.70;;;;;;5004844;28;20045;-79
2023/10/19 11:06:48;;;;;;;7.45;3.70;;;21.80;96.70;;;;;;4971682;28;20053;-80
2023/10/19 11:09:18;;;;;;;8.98;3.30;;;21.80;96.70;;;;;;4980770;28;20053;-80
2023/10/19 11:11:46;;;;;;;11.13;3.33;;;21.90;96.70;;;;;;4997917;28;20472;-80
2023/10/19 11:14:15;;;;;;;8.13;3.92;;;21.80;96.70;;;;;;5006422;28;20080;-80
2023/10/19 11:16:43;;;;;;;4.93;3.15;;;21.80;96.70;;;;;;4991273;28;20081;-79
2023/10/19 11:19:11;;;;;;;5.50;3.30;;;21.90;96.70;;;;;;5004877;28;20103;-78
2023/10/19 11:21:52;;;;;;;8.82;3.40;;;22.10;96.70;;;;;;4988070;28;20042;-80
2023/10/19 11:24:27;;;;;;;5.63;3.33;;;22.40;96.70;;;;;;4981334;28;20128;-79
2023/10/19 11:26:55;;;;;;;8.18;3.88;;;22.50;96.70;;;;;;4996782;28;20070;-79
2023/10/19 11:29:24;;;;;;;7.90;3.50;;;22.80;96.70;;;;;;4983874;28;20050;-78
2023/10/19 11:31:59;;;;;;;7.57;3.42;;;23.10;96.70;;;;;;5000442;28;20492;-79
2023/10/19 11:34:29;;;;;;;5.75;3.92;;;23.30;96.70;;;;;;4979373;28;20046;-81
2023/10/19 11:37:03;;;;;;;6.32;3.58;;;23.50;96.70;;;;;;4996834;28;20042;-80
2023/10/19 11:39:33;;;;;;;5.80;4.00;;;23.60;96.70;;;;;;4979578;28;20057;-80
2023/10/19 11:42:01;;;;;;;8.10;3.53;;;23.80;96.70;;;;;;4967565;28;20054;-80
2023/10/19 11:44:31;;;;;;;8.85;4.07;;;23.90;96.70;;;;;;4965239;28;20047;-80
2023/10/19 11:46:59;;;;;;;7.53;3.80;;;23.90;96.70;;;;;;4978467;28;20062;-81
2023/10/19 11:49:27;;;;;;;6.18;3.80;;;23.90;96.70;;;;;;4954809;28;20052;-81
2023/10/19 11:51:55;;;;;;;8.65;3.03;;;23.90;96.70;;;;;;4988428;28;20049;-81
2023/10/19 11:54:23;;;;;;;7.03;4.10;;;23.90;96.70;;;;;;4973911;28;20165;-80
2023/10/19 11:56:54;;;;;;;6.15;3.55;;;23.90;96.70;;;;;;4971876;28;20046;-80
2023/10/19 11:59:22;;;;;;;7.57;4.30;;;23.80;96.70;;;;;;4979961;28;20045;-81
2023/10/19 12:01:52;;;;;;;7.65;4.50;;;23.60;96.70;;;;;;5002076;28;20165;-80
2023/10/19 12:04:20;;;;;;;8.88;4.05;;;23.70;96.70;;;;;;4986276;28;20045;-81
2023/10/19 12:06:47;;;;;;;9.23;4.15;;;23.60;96.70;;;;;;4985404;28;21448;-80
2023/10/19 12:09:16;;;;;;;14.95;4.43;;;23.60;96.70;;;;;;4986130;28;20052;-80
2023/10/19 12:11:44;;;;;;;7.78;4.18;;;23.50;96.70;;;;;;5004348;28;20053;-80
2023/10/19 12:14:17;;;;;;;9.73;4.10;;;23.50;96.70;;;;;;4996851;28;20500;-81
2023/10/19 12:16:45;;;;;;;7.63;4.25;;;23.40;96.70;;;;;;4961563;28;20054;-80
2023/10/19 12:19:14;;;;;;;9.40;4.30;;;23.40;96.70;;;;;;4970691;28;20041;-80
2023/10/19 12:21:42;;;;;;;10.38;4.20;;;23.40;96.70;;;;;;4989688;28;20105;-80
2023/10/19 12:24:10;;;;;;;8.98;4.22;;;23.30;96.70;;;;;;4978564;28;20084;-80
2023/10/19 12:26:42;;;;;;;7.28;4.68;;;23.20;96.70;;;;;;4965341;28;20496;-78
2023/10/19 12:29:11;;;;;;;8.52;4.82;;;23.20;96.70;;;;;;4968484;28;20440;-80
2023/10/19 12:31:40;;;;;;;9.55;5.07;;;23.30;96.70;;;;;;4974700;28;20065;-79
2023/10/19 12:34:11;;;;;;;11.38;4.65;;;23.20;96.70;;;;;;4974714;28;20082;-80
2023/10/19 12:36:41;;;;;;;11.07;4.88;;;23.20;96.70;;;;;;4977661;28;20490;-80
2023/10/19 12:39:09;;;;;;;9.32;5.07;;;23.10;96.70;;;;;;4971889;28;20137;-79
2023/10/19 12:41:38;;;;;;;8.80;4.78;;;23.00;96.70;;;;;;4950419;28;20047;-78
2023/10/19 12:44:12;;;;;;;5.68;3.83;;;23.00;96.70;;;;;;4972528;28;20697;-79
2023/10/19 12:46:41;;;;;;;8.40;4.57;;;23.00;96.70;;;;;;4972003;28;20046;-79
2023/10/19 12:49:14;;;;;;;8.43;4.72;;;23.00;96.70;;;;;;4984068;28;20073;-79
2023/10/19 12:51:44;;;;;;;8.02;4.72;;;23.00;96.70;;;;;;4958400;28;20473;-79
2023/10/19 12:54:13;;;;;;;13.70;5.43;;;23.00;96.70;;;;;;4969223;28;20058;-80
2023/10/19 12:56:41;;;;;;;10.15;4.68;;;22.90;96.70;;;;;;4982007;28;20508;-79
2023/10/19 12:59:09;;;;;;;11.00;4.82;;;22.90;96.70;;;;;;4972422;28;20046;-79
2023/10/19 13:01:37;;;;;;;11.25;5.10;;;22.80;96.70;;;;;;4985726;28;20126;-80
2023/10/19 13:04:20;;;;;;;9.95;5.28;;;22.90;96.70;;;;;;4977617;28;20042;-78
2023/10/19 13:06:48;;;;;;;8.80;5.00;;;22.80;96.70;;;;;;4970941;28;20106;-79
2023/10/19 13:09:21;;;;;;;9.63;4.70;;;22.80;96.70;;;;;;4978006;28;20074;-79
2023/10/19 13:11:52;;;;;;;9.52;4.70;;;22.80;96.70;;;;;;4969833;28;20089;-80
2023/10/19 13:14:20;;;;;;;9.82;3.97;;;22.80;96.70;;;;;;4976878;28;20536;-79
2023/10/19 13:16:51;;;;;;;9.98;4.63;;;22.80;96.70;;;;;;4972219;28;20039;-79
2023/10/19 13:19:24;;;;;;;10.40;4.80;;;22.80;96.70;;;;;;4978368;28;20054;-79
2023/10/19 13:21:52;;;;;;;10.35;4.95;;;22.90;96.70;;;;;;4985395;28;20145;-80
2023/10/19 13:24:24;;;;;;;11.45;4.53;;;23.00;96.70;;;;;;4964569;28;20047;-79
2023/10/19 13:26:53;;;;;;;8.88;4.43;;;23.30;96.70;;;;;;4977073;28;20078;-80
2023/10/19 13:29:23;;;;;;;6.70;3.70;;;23.50;96.70;;;;;;4970116;28;20046;-80